createdAt,value
2019-01-10T00:00:54.181Z,12.00
2019-01-10T00:01:56.992Z,7.50
2019-01-10T00:03:00.003Z,10.00
2019-01-10T00:04:02.941Z,10.00
2019-01-10T00:05:08.169Z,10.00
2019-01-10T00:06:12.218Z,9.00
2019-01-10T00:07:15.478Z,10.00
2019-01-10T00:08:18.864Z,8.00
2019-01-10T00:09:23.976Z,8.50
2019-01-10T00:10:26.685Z,8.00
2019-01-10T00:11:30.430Z,9.50
2019-01-10T00:12:39.345Z,8.00
2019-01-10T00:13:37.609Z,8.50
2019-01-10T00:14:40.351Z,7.50
2019-01-10T00:15:43.269Z,8.00
2019-01-10T00:16:46.302Z,9.00
2019-01-10T00:17:50.174Z,9.00
2019-01-10T00:18:53.524Z,10.50
2019-01-10T00:19:57.376Z,8.00
2019-01-10T00:21:00.278Z,8.50
2019-01-10T00:22:03.165Z,8.00
2019-01-10T00:23:05.980Z,8.00
2019-01-10T00:24:08.930Z,11.00
2019-01-10T00:25:12.325Z,12.00
2019-01-10T00:26:15.118Z,9.50
2019-01-10T00:27:17.987Z,9.50
2019-01-10T00:28:20.795Z,10.00
2019-01-10T00:29:23.962Z,8.50
2019-01-10T00:30:26.755Z,8.00
2019-01-10T00:31:30.686Z,6.00
2019-01-10T00:32:41.686Z,11.50
2019-01-10T00:33:44.910Z,12.00
2019-01-10T00:34:48.239Z,11.00
2019-01-10T00:35:54.599Z,9.00
2019-01-10T00:36:58.586Z,7.50
2019-01-10T00:38:01.793Z,8.00
2019-01-10T00:39:04.909Z,8.00
2019-01-10T00:40:07.800Z,9.50
2019-01-10T00:41:11.012Z,8.00
2019-01-10T00:42:13.983Z,10.50
2019-01-10T00:43:16.783Z,8.50
2019-01-10T00:44:19.512Z,9.00
2019-01-10T00:45:23.460Z,13.50
2019-01-10T00:46:26.424Z,12.00
2019-01-10T00:47:29.415Z,11.00
2019-01-10T00:48:32.179Z,8.00
2019-01-10T00:49:35.374Z,8.50
2019-01-10T00:50:38.391Z,8.00
2019-01-10T00:51:41.181Z,10.00
2019-01-10T00:52:43.987Z,8.00
2019-01-10T00:53:46.953Z,10.00
2019-01-10T00:54:49.679Z,8.50
2019-01-10T00:55:52.883Z,12.00
2019-01-10T00:56:55.606Z,8.00
2019-01-10T00:57:58.416Z,9.00
2019-01-10T00:59:01.290Z,11.00
2019-01-10T01:00:03.993Z,8.00
2019-01-10T01:01:07.073Z,12.00
2019-01-10T01:02:10.336Z,10.00
2019-01-10T01:03:13.056Z,7.50
2019-01-10T01:04:16.080Z,10.00
2019-01-10T01:05:18.809Z,9.00
2019-01-10T01:06:21.788Z,11.50
2019-01-10T01:07:24.638Z,8.00
2019-01-10T01:08:30.807Z,8.00
2019-01-10T01:09:34.536Z,9.50
2019-01-10T01:10:37.247Z,9.00
2019-01-10T01:11:40.275Z,11.50
2019-01-10T01:12:44.596Z,6.50
2019-01-10T01:13:47.339Z,8.00
2019-01-10T01:14:50.492Z,9.00
2019-01-10T01:15:53.285Z,9.50
2019-01-10T01:16:58.438Z,12.00
2019-01-10T01:18:01.326Z,12.50
2019-01-10T01:19:04.197Z,10.00
2019-01-10T01:20:06.888Z,10.00
2019-01-10T01:21:10.116Z,8.00
2019-01-10T01:22:13.057Z,10.00
2019-01-10T01:23:17.824Z,10.50
2019-01-10T01:24:20.471Z,10.00
2019-01-10T01:25:23.377Z,10.00
2019-01-10T01:26:26.511Z,10.00
2019-01-10T01:27:29.674Z,10.00
2019-01-10T01:28:32.976Z,10.00
2019-01-10T01:29:36.131Z,10.00
2019-01-10T01:30:39.423Z,12.50
2019-01-10T01:31:42.756Z,11.00
2019-01-10T01:32:45.560Z,8.00
2019-01-10T01:33:48.876Z,12.50
2019-01-10T01:34:51.705Z,9.50
2019-01-10T01:35:54.474Z,10.00
2019-01-10T01:36:57.198Z,8.00
2019-01-10T01:37:59.992Z,12.00
2019-01-10T01:39:03.403Z,9.50
2019-01-10T01:40:06.583Z,8.50
2019-01-10T01:41:09.431Z,8.00
2019-01-10T01:42:12.454Z,8.00
2019-01-10T01:43:15.182Z,8.00
2019-01-10T01:44:18.348Z,8.00
2019-01-10T01:45:21.521Z,12.00
2019-01-10T01:46:24.721Z,8.50
2019-01-10T01:47:29.406Z,10.00
2019-01-10T01:48:32.269Z,10.00
2019-01-10T01:49:35.607Z,10.00
2019-01-10T01:50:38.447Z,9.50
2019-01-10T01:51:41.295Z,7.00
2019-01-10T01:52:44.488Z,9.00
2019-01-10T01:53:47.273Z,6.50
2019-01-10T01:54:49.997Z,8.00
2019-01-10T01:55:52.808Z,10.00
2019-01-10T01:56:55.777Z,12.00
2019-01-10T01:57:58.671Z,8.00
2019-01-10T01:59:01.986Z,9.00
2019-01-10T02:00:04.840Z,8.00
2019-01-10T02:01:07.565Z,10.50
2019-01-10T02:02:10.307Z,15.50
2019-01-10T02:03:13.336Z,12.00
2019-01-10T02:04:16.382Z,8.00
2019-01-10T02:05:19.266Z,9.00
2019-01-10T02:06:22.180Z,10.00
2019-01-10T02:07:25.484Z,10.50
2019-01-10T02:08:28.410Z,10.00
2019-01-10T02:09:31.940Z,8.00
2019-01-10T02:10:35.062Z,9.50
2019-01-10T02:11:38.397Z,13.50
2019-01-10T02:12:41.121Z,8.00
2019-01-10T02:13:43.924Z,8.00
2019-01-10T02:14:46.712Z,9.00
2019-01-10T02:15:49.603Z,10.00
2019-01-10T02:16:52.726Z,9.00
2019-01-10T02:17:56.061Z,12.00
2019-01-10T02:18:58.782Z,8.50
2019-01-10T02:20:01.660Z,8.50
2019-01-10T02:21:04.391Z,8.00
2019-01-10T02:22:07.309Z,13.00
2019-01-10T02:23:10.241Z,12.00
2019-01-10T02:24:13.538Z,11.00
2019-01-10T02:25:16.706Z,8.00
2019-01-10T02:26:19.596Z,10.00
2019-01-10T02:27:22.395Z,8.00
2019-01-10T02:28:25.280Z,13.00
2019-01-10T02:29:28.489Z,9.00
2019-01-10T02:30:41.609Z,8.00
2019-01-10T02:31:36.058Z,8.00
2019-01-10T02:32:38.845Z,10.00
2019-01-10T02:33:41.596Z,6.50
2019-01-10T02:34:44.511Z,11.50
2019-01-10T02:35:47.345Z,8.00
2019-01-10T02:36:50.637Z,10.00
2019-01-10T02:37:53.610Z,12.00
2019-01-10T02:38:56.514Z,11.00
2019-01-10T02:39:59.247Z,9.50
2019-01-10T02:41:02.817Z,9.50
2019-01-10T02:42:05.828Z,10.50
2019-01-10T02:43:09.057Z,8.00
2019-01-10T02:44:12.026Z,12.00
2019-01-10T02:45:14.927Z,13.00
2019-01-10T02:46:17.648Z,8.50
2019-01-10T02:47:20.484Z,8.00
2019-01-10T02:48:23.420Z,12.50
2019-01-10T02:49:26.821Z,10.00
2019-01-10T02:50:30.370Z,9.50
2019-01-10T02:51:35.322Z,11.50
2019-01-10T02:52:38.204Z,13.00
2019-01-10T02:53:41.202Z,10.50
2019-01-10T02:54:44.132Z,12.00
2019-01-10T02:55:47.733Z,10.00
2019-01-10T02:56:50.552Z,8.50
2019-01-10T02:57:53.474Z,10.00
2019-01-10T02:58:56.276Z,9.50
2019-01-10T02:59:59.020Z,8.00
2019-01-10T03:01:01.778Z,7.00
2019-01-10T03:02:05.575Z,12.50
2019-01-10T03:03:08.447Z,8.00
2019-01-10T03:04:11.152Z,9.00
2019-01-10T03:05:13.910Z,9.50
2019-01-10T03:06:17.292Z,10.00
2019-01-10T03:07:20.271Z,11.50
2019-01-10T03:08:23.470Z,7.50
2019-01-10T03:09:26.297Z,10.00
2019-01-10T03:10:29.495Z,9.50
2019-01-10T03:11:32.263Z,9.00
2019-01-10T03:12:35.077Z,8.00
2019-01-10T03:13:40.854Z,11.00
2019-01-10T03:14:46.771Z,10.50
2019-01-10T03:15:49.656Z,9.00
2019-01-10T03:16:52.589Z,10.00
2019-01-10T03:17:55.411Z,9.50
2019-01-10T03:18:58.173Z,8.00
2019-01-10T03:20:01.078Z,10.00
2019-01-10T03:21:04.492Z,8.00
2019-01-10T03:22:07.297Z,6.50
2019-01-10T03:23:10.191Z,10.00
2019-01-10T03:24:12.911Z,8.00
2019-01-10T03:25:15.850Z,10.00
2019-01-10T03:26:18.686Z,9.50
2019-01-10T03:27:22.201Z,11.50
2019-01-10T03:28:25.142Z,10.50
2019-01-10T03:29:28.100Z,12.50
2019-01-10T03:30:30.986Z,9.50
2019-01-10T03:31:34.047Z,10.00
2019-01-10T03:32:36.918Z,10.50
2019-01-10T03:33:48.822Z,10.00
2019-01-10T03:34:52.328Z,10.00
2019-01-10T03:35:55.234Z,10.00
2019-01-10T03:36:58.203Z,12.50
2019-01-10T03:38:01.180Z,14.00
2019-01-10T03:39:04.718Z,8.00
2019-01-10T03:40:08.033Z,12.50
2019-01-10T03:41:11.122Z,12.00
2019-01-10T03:42:14.027Z,14.00
2019-01-10T03:43:16.909Z,13.00
2019-01-10T03:44:19.830Z,18.00
2019-01-10T03:45:22.774Z,14.50
2019-01-10T03:46:26.363Z,13.50
2019-01-10T03:47:29.258Z,12.00
2019-01-10T03:48:32.155Z,11.50
2019-01-10T03:49:35.075Z,14.00
2019-01-10T03:50:38.144Z,12.50
2019-01-10T03:51:41.067Z,12.00
2019-01-10T03:52:44.377Z,15.00
2019-01-10T03:53:47.721Z,11.50
2019-01-10T03:54:50.628Z,10.00
2019-01-10T03:55:53.597Z,12.00
2019-01-10T03:56:56.571Z,13.00
2019-01-10T03:57:59.460Z,10.50
2019-01-10T03:59:02.819Z,11.00
2019-01-10T04:00:06.246Z,15.00
2019-01-10T04:01:09.415Z,17.00
2019-01-10T04:02:12.500Z,20.50
2019-01-10T04:03:15.413Z,11.00
2019-01-10T04:04:18.308Z,13.50
2019-01-10T04:05:21.710Z,10.50
2019-01-10T04:06:24.588Z,18.00
2019-01-10T04:07:29.729Z,19.50
2019-01-10T04:08:32.598Z,12.50
2019-01-10T04:09:35.495Z,12.00
2019-01-10T04:10:38.434Z,12.00
2019-01-10T04:11:41.840Z,14.00
2019-01-10T04:12:45.313Z,16.50
2019-01-10T04:13:57.127Z,11.00
2019-01-10T04:14:52.749Z,17.50
2019-01-10T04:15:55.621Z,18.00
2019-01-10T04:16:58.500Z,10.00
2019-01-10T04:18:01.811Z,19.50
2019-01-10T04:19:04.680Z,11.50
2019-01-10T04:20:07.597Z,12.00
2019-01-10T04:21:17.014Z,10.50
2019-01-10T04:22:15.021Z,14.00
2019-01-10T04:23:17.978Z,14.00
2019-01-10T04:24:21.215Z,16.00
2019-01-10T04:25:24.181Z,15.50
2019-01-10T04:26:27.077Z,12.00
2019-01-10T04:27:30.402Z,15.50
2019-01-10T04:28:34.762Z,13.00
2019-01-10T04:29:37.710Z,14.00
2019-01-10T04:30:40.608Z,10.00
2019-01-10T04:31:43.924Z,14.50
2019-01-10T04:32:46.893Z,10.00
2019-01-10T04:33:50.199Z,14.00
2019-01-10T04:34:53.177Z,14.00
2019-01-10T04:35:56.505Z,12.50
2019-01-10T04:36:59.398Z,14.00
2019-01-10T04:38:02.274Z,14.00
2019-01-10T04:39:06.289Z,17.00
2019-01-10T04:40:09.293Z,17.50
2019-01-10T04:41:12.170Z,14.00
2019-01-10T04:42:15.393Z,13.50
2019-01-10T04:43:18.399Z,14.00
2019-01-10T04:44:21.374Z,13.50
2019-01-10T04:45:24.257Z,13.00
2019-01-10T04:46:27.154Z,14.00
2019-01-10T04:47:32.497Z,14.00
2019-01-10T04:48:35.560Z,16.50
2019-01-10T04:49:38.562Z,19.00
2019-01-10T04:50:41.445Z,14.00
2019-01-10T04:51:44.313Z,12.00
2019-01-10T04:52:47.213Z,19.00
2019-01-10T04:53:50.086Z,13.00
2019-01-10T04:54:56.107Z,20.00
2019-01-10T04:55:57.949Z,14.00
2019-01-10T04:57:01.201Z,12.00
2019-01-10T04:58:04.132Z,14.00
2019-01-10T04:59:07.090Z,14.00
2019-01-10T05:00:10.027Z,16.00
2019-01-10T05:01:13.343Z,13.00
2019-01-10T05:02:18.469Z,12.50
2019-01-10T05:03:20.921Z,20.00
2019-01-10T05:04:23.947Z,15.00
2019-01-10T05:05:27.530Z,14.50
2019-01-10T05:06:30.552Z,22.50
2019-01-10T05:07:33.850Z,14.00
2019-01-10T05:08:36.734Z,14.00
2019-01-10T05:09:40.079Z,20.50
2019-01-10T05:10:43.069Z,19.00
2019-01-10T05:11:45.977Z,16.50
2019-01-10T05:12:49.328Z,17.00
2019-01-10T05:13:52.750Z,15.00
2019-01-10T05:14:55.758Z,14.00
2019-01-10T05:15:58.760Z,18.50
2019-01-10T05:17:01.643Z,15.00
2019-01-10T05:18:04.553Z,21.50
2019-01-10T05:19:07.457Z,16.00
2019-01-10T05:20:10.806Z,18.00
2019-01-10T05:21:13.803Z,18.00
2019-01-10T05:22:17.179Z,20.50
2019-01-10T05:23:22.196Z,17.00
2019-01-10T05:24:25.195Z,16.00
2019-01-10T05:25:28.588Z,17.50
2019-01-10T05:26:32.399Z,16.00
2019-01-10T05:27:35.268Z,18.00
2019-01-10T05:28:38.238Z,22.00
2019-01-10T05:29:41.118Z,21.50
2019-01-10T05:30:44.455Z,19.50
2019-01-10T05:31:47.392Z,19.00
2019-01-10T05:32:50.596Z,18.00
2019-01-10T05:33:53.672Z,18.00
2019-01-10T05:34:56.623Z,19.50
2019-01-10T05:35:59.708Z,15.50
2019-01-10T05:37:02.576Z,20.00
2019-01-10T05:38:05.517Z,20.50
2019-01-10T05:39:09.318Z,18.00
2019-01-10T05:40:20.412Z,21.00
2019-01-10T05:41:22.737Z,20.50
2019-01-10T05:42:25.682Z,17.50
2019-01-10T05:43:28.585Z,20.00
2019-01-10T05:44:31.699Z,19.50
2019-01-10T05:45:35.124Z,22.00
2019-01-10T05:46:38.028Z,19.50
2019-01-10T05:47:43.026Z,17.50
2019-01-10T05:48:47.017Z,18.50
2019-01-10T05:49:50.550Z,19.50
2019-01-10T05:50:53.444Z,23.50
2019-01-10T05:51:56.670Z,20.00
2019-01-10T05:52:59.655Z,19.50
2019-01-10T05:54:02.568Z,15.50
2019-01-10T05:55:06.898Z,24.00
2019-01-10T05:56:15.349Z,15.00
2019-01-10T05:57:14.798Z,12.50
2019-01-10T05:58:18.285Z,15.50
2019-01-10T05:59:21.156Z,20.00
2019-01-10T06:00:24.064Z,22.50
2019-01-10T06:01:26.955Z,26.50
2019-01-10T06:02:29.864Z,21.50
2019-01-10T06:03:32.881Z,18.50
2019-01-10T06:04:35.744Z,25.50
2019-01-10T06:05:38.684Z,22.00
2019-01-10T06:06:41.611Z,21.00
2019-01-10T06:07:44.495Z,18.50
2019-01-10T06:08:47.503Z,25.00
2019-01-10T06:09:52.440Z,18.50
2019-01-10T06:10:55.348Z,22.00
2019-01-10T06:11:58.321Z,17.50
2019-01-10T06:13:01.566Z,22.00
2019-01-10T06:14:04.510Z,16.50
2019-01-10T06:15:07.376Z,24.50
2019-01-10T06:16:11.172Z,19.00
2019-01-10T06:17:14.159Z,24.00
2019-01-10T06:18:17.665Z,22.00
2019-01-10T06:19:26.903Z,25.50
2019-01-10T06:20:29.040Z,18.00
2019-01-10T06:21:34.956Z,23.50
2019-01-10T06:22:38.236Z,18.50
2019-01-10T06:23:41.190Z,23.00
2019-01-10T06:24:44.558Z,26.00
2019-01-10T06:25:47.505Z,24.00
2019-01-10T06:26:52.850Z,20.00
2019-01-10T06:27:56.112Z,23.00
2019-01-10T06:28:59.581Z,21.50
2019-01-10T06:30:02.499Z,27.00
2019-01-10T06:44:16.909Z,20.25
2019-01-10T06:45:20.681Z,19.50
2019-01-10T06:46:23.803Z,21.75
2019-01-10T06:47:26.749Z,19.75
2019-01-10T06:48:31.119Z,28.25
2019-01-10T06:49:34.382Z,20.75
2019-01-10T06:50:39.123Z,27.50
2019-01-10T06:51:41.848Z,18.00
2019-01-10T06:52:44.826Z,19.00
2019-01-10T06:53:48.279Z,17.50
2019-01-10T06:54:56.637Z,22.00
2019-01-10T06:55:59.082Z,24.00
2019-01-10T06:57:02.001Z,21.00
2019-01-10T06:58:04.889Z,33.50
2019-01-10T06:59:08.649Z,22.50
2019-01-10T07:00:11.707Z,26.50
2019-01-10T07:01:15.405Z,22.50
2019-01-10T07:02:18.571Z,23.00
2019-01-10T07:03:21.531Z,19.00
2019-01-10T07:04:24.933Z,21.50
2019-01-10T07:05:27.964Z,21.50
2019-01-10T07:06:30.864Z,23.50
2019-01-10T07:07:33.765Z,21.50
2019-01-10T07:08:36.851Z,17.50
2019-01-10T07:09:40.253Z,20.50
2019-01-10T07:10:43.207Z,18.00
2019-01-10T07:11:46.712Z,22.00
2019-01-10T07:12:50.150Z,25.00
2019-01-10T07:13:53.077Z,18.50
2019-01-10T07:14:55.960Z,22.00
2019-01-10T07:15:58.871Z,24.00
2019-01-10T07:17:01.870Z,25.00
2019-01-10T07:18:05.382Z,21.00
2019-01-10T07:19:08.523Z,28.50
2019-01-10T07:20:11.430Z,21.00
2019-01-10T07:21:14.322Z,24.00
2019-01-10T07:22:17.265Z,26.50
2019-01-10T07:23:20.277Z,23.50
2019-01-10T07:24:23.186Z,26.00
2019-01-10T07:25:26.638Z,27.00
2019-01-10T07:26:29.928Z,26.00
2019-01-10T07:27:32.957Z,26.00
2019-01-10T07:28:36.010Z,20.50
2019-01-10T07:29:38.904Z,22.00
2019-01-10T07:30:42.710Z,23.50
2019-01-10T07:31:47.051Z,23.50
2019-01-10T07:32:51.832Z,17.00
2019-01-10T07:33:59.128Z,25.00
2019-01-10T07:35:02.057Z,12.50
2019-01-10T07:36:04.952Z,18.50
2019-01-10T07:37:13.004Z,24.00
2019-01-10T07:38:12.740Z,20.00
2019-01-10T07:39:15.733Z,22.00
2019-01-10T07:40:18.898Z,19.00
2019-01-10T07:41:21.804Z,22.50
2019-01-10T07:42:24.803Z,20.00
2019-01-10T07:43:28.155Z,18.50
2019-01-10T07:44:31.139Z,22.50
2019-01-10T07:45:34.128Z,19.50
2019-01-10T07:46:38.943Z,20.50
2019-01-10T07:47:51.393Z,17.50
2019-01-10T07:48:54.350Z,17.50
2019-01-10T07:49:57.789Z,18.00
2019-01-10T07:51:01.243Z,22.00
2019-01-10T07:52:04.648Z,20.00
2019-01-10T07:53:12.931Z,23.50
2019-01-10T07:54:15.922Z,18.00
2019-01-10T07:55:19.168Z,19.50
2019-01-10T07:56:22.101Z,20.00
2019-01-10T07:57:24.986Z,21.00
2019-01-10T07:58:28.938Z,18.00
2019-01-10T07:59:33.680Z,20.00
2019-01-10T08:00:36.612Z,18.00
2019-01-10T08:01:39.514Z,25.50
2019-01-10T08:02:42.480Z,16.00
2019-01-10T08:03:45.403Z,17.00
2019-01-10T08:04:54.358Z,18.00
2019-01-10T08:05:57.492Z,21.00
2019-01-10T08:07:00.423Z,19.00
2019-01-10T08:08:03.459Z,18.00
2019-01-10T08:09:06.387Z,14.00
2019-01-10T08:10:10.766Z,17.00
2019-01-10T08:11:14.633Z,15.00
2019-01-10T08:12:18.120Z,17.00
2019-01-10T08:13:24.316Z,18.50
2019-01-10T08:14:27.309Z,18.50
2019-01-10T08:15:30.467Z,18.00
2019-01-10T08:16:36.573Z,19.00
2019-01-10T08:17:40.217Z,18.00
2019-01-10T08:18:43.118Z,25.00
2019-01-10T08:19:47.453Z,27.00
2019-01-10T08:20:50.425Z,16.00
2019-01-10T08:21:53.404Z,19.00
2019-01-10T08:22:56.314Z,14.50
2019-01-10T08:23:59.334Z,19.00
2019-01-10T08:25:02.321Z,18.50
2019-01-10T08:26:05.472Z,16.50
2019-01-10T08:27:09.575Z,16.00
2019-01-10T08:28:12.472Z,18.00
2019-01-10T08:29:20.524Z,20.50
2019-01-10T08:30:25.872Z,15.50
2019-01-10T08:31:28.780Z,16.50
2019-01-10T08:32:31.675Z,16.50
2019-01-10T08:33:34.697Z,19.50
2019-01-10T08:34:41.863Z,14.00
2019-01-10T08:35:46.051Z,15.50
2019-01-10T08:36:48.956Z,13.50
2019-01-10T08:37:51.843Z,16.00
2019-01-10T08:38:54.836Z,16.00
2019-01-10T08:39:57.732Z,16.00
2019-01-10T08:41:00.661Z,15.50
2019-01-10T08:42:03.762Z,14.00
2019-01-10T08:43:06.877Z,13.50
2019-01-10T08:44:10.199Z,19.00
2019-01-10T08:45:21.380Z,17.00
2019-01-10T08:46:25.177Z,18.00
2019-01-10T08:47:30.562Z,18.50
2019-01-10T08:48:35.346Z,17.50
2019-01-10T08:49:40.046Z,18.00
2019-01-10T08:50:43.538Z,15.50
2019-01-10T08:51:51.808Z,16.00
2019-01-10T08:53:15.947Z,12.00
2019-01-10T08:54:26.931Z,14.50
2019-01-10T08:55:44.268Z,12.00
2019-01-10T08:56:48.435Z,16.00
2019-01-10T08:57:53.491Z,16.00
2019-01-10T08:59:01.769Z,12.00
2019-01-10T09:00:04.984Z,11.50
2019-01-10T09:01:08.035Z,13.50
2019-01-10T09:02:11.046Z,13.00
2019-01-10T09:03:14.028Z,16.50
2019-01-10T09:04:18.386Z,13.50
2019-01-10T09:05:23.712Z,16.00
2019-01-10T09:06:29.217Z,15.00
2019-01-10T09:07:32.110Z,14.00
2019-01-10T09:08:36.207Z,15.00
2019-01-10T09:09:39.118Z,16.00
2019-01-10T09:10:42.123Z,20.00
2019-01-10T09:11:46.119Z,16.00
2019-01-10T09:12:54.279Z,14.50
2019-01-10T09:13:57.160Z,18.00
2019-01-10T09:15:00.655Z,13.00
2019-01-10T09:16:06.832Z,13.50
2019-01-10T09:17:09.840Z,12.00
2019-01-10T09:18:12.836Z,17.50
2019-01-10T09:19:22.380Z,18.00
2019-01-10T09:20:25.270Z,12.50
2019-01-10T09:21:28.290Z,11.50
2019-01-10T09:22:31.251Z,14.00
2019-01-10T09:23:34.634Z,13.00
2019-01-10T09:24:47.395Z,11.50
2019-01-10T09:25:50.376Z,16.00
2019-01-10T09:26:53.340Z,11.50
2019-01-10T09:27:56.365Z,14.50
2019-01-10T09:28:59.357Z,15.50
2019-01-10T09:30:02.364Z,13.50
2019-01-10T09:31:05.252Z,18.50
2019-01-10T09:32:08.152Z,16.50
2019-01-10T09:33:11.169Z,16.50
2019-01-10T09:34:14.161Z,11.00
2019-01-10T09:35:19.211Z,10.00
2019-01-10T09:36:23.983Z,8.00
2019-01-10T09:37:29.035Z,14.00
2019-01-10T09:38:31.695Z,14.00
2019-01-10T09:39:34.735Z,14.00
2019-01-10T09:40:37.656Z,13.50
2019-01-10T09:41:40.579Z,10.00
2019-01-10T09:42:43.475Z,12.00
2019-01-10T09:43:46.528Z,13.50
2019-01-10T09:44:49.467Z,10.50
2019-01-10T09:45:52.752Z,14.50
2019-01-10T09:46:55.700Z,12.50
2019-01-10T09:47:58.615Z,12.00
2019-01-10T09:49:02.133Z,10.00
2019-01-10T09:50:05.176Z,12.50
2019-01-10T09:51:08.170Z,10.00
2019-01-10T09:52:11.493Z,16.00
2019-01-10T09:53:14.390Z,10.00
2019-01-10T09:54:19.857Z,11.50
2019-01-10T09:55:22.656Z,9.00
2019-01-10T09:56:31.224Z,8.00
2019-01-10T09:57:36.884Z,8.00
2019-01-10T09:58:40.328Z,10.00
2019-01-10T09:59:43.073Z,8.50
2019-01-10T10:00:47.552Z,9.50
2019-01-10T10:01:50.488Z,13.50
2019-01-10T10:02:53.264Z,8.50
2019-01-10T10:03:56.013Z,9.50
2019-01-10T10:05:00.822Z,12.50
2019-01-10T10:06:07.989Z,11.50
2019-01-10T10:07:11.873Z,16.00
2019-01-10T10:08:14.810Z,12.00
2019-01-10T10:09:17.797Z,10.00
2019-01-10T10:10:20.627Z,8.50
2019-01-10T10:11:23.707Z,12.00
2019-01-10T10:12:26.715Z,10.00
2019-01-10T10:13:29.605Z,15.50
2019-01-10T10:14:32.371Z,8.00
2019-01-10T10:15:35.188Z,9.50
2019-01-10T10:16:38.133Z,11.00
2019-01-10T10:17:41.391Z,12.00
2019-01-10T10:18:44.416Z,14.00
2019-01-10T10:19:47.766Z,15.00
2019-01-10T10:20:50.865Z,10.00
2019-01-10T10:21:53.630Z,8.50
2019-01-10T10:22:56.735Z,12.00
2019-01-10T10:23:59.606Z,12.00
2019-01-10T10:25:02.593Z,10.00
2019-01-10T10:26:08.681Z,12.00
2019-01-10T10:27:13.288Z,14.00
2019-01-10T10:28:16.500Z,10.00
2019-01-10T10:29:19.358Z,8.00
2019-01-10T10:30:22.380Z,12.00
2019-01-10T10:31:25.860Z,8.00
2019-01-10T10:32:28.936Z,10.00
2019-01-10T10:33:32.123Z,9.50
2019-01-10T10:34:34.995Z,9.00
2019-01-10T10:35:37.992Z,12.50
2019-01-10T10:36:40.978Z,12.00
2019-01-10T10:37:43.945Z,16.00
2019-01-10T10:38:46.997Z,10.00
2019-01-10T10:39:50.004Z,12.50
2019-01-10T10:40:53.029Z,10.00
2019-01-10T10:41:57.743Z,10.50
2019-01-10T10:43:00.685Z,12.00
2019-01-10T10:44:05.185Z,12.00
2019-01-10T10:45:10.476Z,8.00
2019-01-10T10:46:15.046Z,12.00
2019-01-10T10:47:21.212Z,10.50
2019-01-10T10:48:24.700Z,10.50
2019-01-10T10:49:28.103Z,8.00
2019-01-10T10:50:31.098Z,11.50
2019-01-10T10:51:34.553Z,10.00
2019-01-10T10:52:37.544Z,14.00
2019-01-10T10:53:40.535Z,13.50
2019-01-10T10:54:43.550Z,11.50
2019-01-10T10:55:46.472Z,10.50
2019-01-10T10:56:49.566Z,10.00
2019-01-10T10:57:52.572Z,12.00
2019-01-10T10:58:55.561Z,12.00
2019-01-10T10:59:58.304Z,9.50
2019-01-10T11:01:01.451Z,10.50
2019-01-10T11:02:04.580Z,11.50
2019-01-10T11:03:07.458Z,10.50
2019-01-10T11:04:11.999Z,13.50
2019-01-10T11:05:14.787Z,9.00
2019-01-10T11:06:18.247Z,11.50
2019-01-10T11:07:21.210Z,10.00
2019-01-10T11:08:26.901Z,11.00
2019-01-10T11:09:29.818Z,12.00
2019-01-10T11:10:33.723Z,8.50
2019-01-10T11:11:36.584Z,8.00
2019-01-10T11:12:43.962Z,10.00
2019-01-10T11:13:48.021Z,12.00
2019-01-10T11:14:50.859Z,9.50
2019-01-10T11:15:54.226Z,8.00
2019-01-10T11:16:57.198Z,12.00
2019-01-10T11:18:00.359Z,9.00
2019-01-10T11:19:03.810Z,12.00
2019-01-10T11:20:06.705Z,11.00
2019-01-10T11:21:12.706Z,10.00
2019-01-10T11:22:15.588Z,12.00
2019-01-10T11:23:19.018Z,13.00
2019-01-10T11:24:21.965Z,12.00
2019-01-10T11:25:24.797Z,9.50
2019-01-10T11:26:28.218Z,10.00
2019-01-10T11:27:30.968Z,10.50
2019-01-10T11:28:34.996Z,10.00
2019-01-10T11:29:38.300Z,12.50
2019-01-10T11:43:06.341Z,16.50
2019-01-10T11:44:09.302Z,12.75
2019-01-10T11:45:12.359Z,12.00
2019-01-10T11:46:19.674Z,12.00
2019-01-10T11:47:19.923Z,13.00
2019-01-10T11:48:23.220Z,13.00
2019-01-10T11:49:26.395Z,11.00
2019-01-10T11:50:29.573Z,12.25
2019-01-10T11:51:32.415Z,9.75
2019-01-10T11:52:35.203Z,9.75
2019-01-10T11:53:38.314Z,11.50
2019-01-10T11:54:41.373Z,11.75
2019-01-10T11:55:44.436Z,10.50
2019-01-10T11:56:47.833Z,9.75
2019-01-10T11:57:51.431Z,11.00
2019-01-10T11:58:54.184Z,8.00
2019-01-10T11:59:57.531Z,7.50
2019-01-10T12:01:00.740Z,11.75
2019-01-10T12:02:03.661Z,10.00
2019-01-10T12:03:06.569Z,11.50
2019-01-10T12:04:09.444Z,13.00
2019-01-10T12:05:12.280Z,8.00
2019-01-10T12:06:15.336Z,11.50
2019-01-10T12:07:18.650Z,11.00
2019-01-10T12:08:21.589Z,10.50
2019-01-10T12:09:24.587Z,10.00
2019-01-10T12:10:28.055Z,8.00
2019-01-10T12:11:33.917Z,12.00
2019-01-10T12:12:39.864Z,11.50
2019-01-10T12:13:49.868Z,8.50
2019-01-10T12:14:53.945Z,9.50
2019-01-10T12:15:56.863Z,17.00
2019-01-10T12:16:59.614Z,8.50
2019-01-10T12:18:02.428Z,6.00
2019-01-10T12:19:05.540Z,10.00
2019-01-10T12:20:11.594Z,9.50
2019-01-10T12:21:14.429Z,8.00
2019-01-10T12:22:17.181Z,10.00
2019-01-10T12:23:20.633Z,11.00
2019-01-10T12:24:23.521Z,9.00
2019-01-10T12:25:26.482Z,10.00
2019-01-10T12:26:29.692Z,10.00
2019-01-10T12:27:33.670Z,7.00
2019-01-10T12:28:36.704Z,10.00
2019-01-10T12:29:39.457Z,9.00
2019-01-10T12:30:42.399Z,8.00
2019-01-10T12:31:45.504Z,10.00
2019-01-10T12:32:48.743Z,8.00
2019-01-10T12:33:52.734Z,11.50
2019-01-10T12:34:55.653Z,14.00
2019-01-10T12:35:58.612Z,12.00
2019-01-10T12:37:04.615Z,11.50
2019-01-10T12:38:07.435Z,9.75
2019-01-10T12:39:15.835Z,11.00
2019-01-10T12:40:25.271Z,10.00
2019-01-10T12:41:28.111Z,8.00
2019-01-10T12:42:31.347Z,8.50
2019-01-10T12:43:34.156Z,9.50
2019-01-10T12:44:39.816Z,11.25
2019-01-10T12:45:43.056Z,11.75
2019-01-10T12:46:45.831Z,10.25
2019-01-10T12:47:49.215Z,11.75
2019-01-10T12:48:56.172Z,11.00
2019-01-10T12:49:58.997Z,7.75
2019-01-10T12:51:01.905Z,10.50
2019-01-10T12:52:08.210Z,13.00
2019-01-10T12:53:11.262Z,10.50
2019-01-10T12:54:14.194Z,17.25
2019-01-10T12:55:17.122Z,13.75
2019-01-10T12:56:20.283Z,15.75
2019-01-10T12:57:23.007Z,9.25
2019-01-10T12:58:27.905Z,9.75
2019-01-10T12:59:31.084Z,12.00
2019-01-10T13:00:36.856Z,9.00
2019-01-10T13:01:39.970Z,7.75
2019-01-10T13:02:43.353Z,11.00
2019-01-10T13:03:46.157Z,8.50
2019-01-10T13:04:49.373Z,7.00
2019-01-10T13:05:53.799Z,11.25
2019-01-10T13:06:56.645Z,7.25
2019-01-10T13:08:03.751Z,11.25
2019-01-10T13:09:04.753Z,9.75
2019-01-10T13:10:07.665Z,10.25
2019-01-10T13:11:10.981Z,8.25
2019-01-10T13:12:14.254Z,9.75
2019-01-10T13:13:17.306Z,11.75
2019-01-10T13:14:20.350Z,10.75
2019-01-10T13:15:23.288Z,12.75
2019-01-10T13:16:27.651Z,8.75
2019-01-10T13:17:35.940Z,11.25
2019-01-10T13:18:38.718Z,9.00
2019-01-10T13:19:41.793Z,10.00
2019-01-10T13:20:44.762Z,10.50
2019-01-10T13:21:48.334Z,10.50
2019-01-10T13:22:51.508Z,7.00
2019-01-10T13:23:54.644Z,6.75
2019-01-10T13:24:57.548Z,9.00
2019-01-10T13:26:00.566Z,10.75
2019-01-10T13:27:03.630Z,11.00
2019-01-10T13:28:06.422Z,7.00
2019-01-10T13:29:09.025Z,11.00
2019-01-10T13:30:12.662Z,9.50
2019-01-10T13:31:15.688Z,10.75
2019-01-10T13:32:18.676Z,8.25
2019-01-10T13:33:21.698Z,6.50
2019-01-10T13:34:26.863Z,10.75
2019-01-10T13:35:29.650Z,5.50
2019-01-10T13:36:32.906Z,8.50
2019-01-10T13:37:36.551Z,10.75
2019-01-10T13:38:39.401Z,7.50
2019-01-10T13:39:42.253Z,9.00
2019-01-10T13:40:45.013Z,7.00
2019-01-10T13:41:48.638Z,9.00
2019-01-10T13:42:51.940Z,8.00
2019-01-10T13:43:55.009Z,9.75
2019-01-10T13:44:58.905Z,12.75
2019-01-10T13:46:01.945Z,6.00
2019-01-10T13:47:04.990Z,10.50
2019-01-10T13:48:10.437Z,8.00
2019-01-10T13:49:13.639Z,8.75
2019-01-10T13:50:16.588Z,9.50
2019-01-10T13:51:21.452Z,10.75
2019-01-10T13:52:24.415Z,10.00
2019-01-10T13:53:27.239Z,9.00
2019-01-10T13:54:30.069Z,8.50
2019-01-10T13:55:33.369Z,9.75
2019-01-10T13:56:36.292Z,6.75
2019-01-10T13:57:39.785Z,6.00
2019-01-10T13:58:42.640Z,7.75
2019-01-10T13:59:45.493Z,6.25
2019-01-10T14:00:48.384Z,3.75
2019-01-10T14:01:57.468Z,11.50
2019-01-10T14:02:59.532Z,9.00
2019-01-10T14:04:02.471Z,7.50
2019-01-10T14:05:10.441Z,6.00
2019-01-10T14:06:10.125Z,10.00
2019-01-10T14:07:12.933Z,9.00
2019-01-10T14:08:18.188Z,10.00
2019-01-10T14:09:21.032Z,7.50
2019-01-10T14:10:23.847Z,11.00
2019-01-10T14:11:26.661Z,8.00